Time;durP1;ratioP1;P1;durP2;ratioP2;P2;SDS_P1;SDS_P2;PMS_P1;PMS_P2;Temp;Humidity;BMP_temperature;BMP_pressure;BME280_temperature;BME280_humidity;BME280_pressure;Samples;Min_cycle;Max_cycle;Signal;HPM_P1;HPM_P2
2021/07/04 00:00:21;;;;;;;2.77;2.57;;;;;;;14.62;72.31;101362.25;3577419;40;20555;-78
2021/07/04 00:02:47;;;;;;;2.87;2.67;;;;;;;14.58;72.02;101365.66;3578336;40;20238;-77
2021/07/04 00:05:15;;;;;;;5.07;3.17;;;;;;;14.57;71.71;101350.16;3579517;40;20224;-76
2021/07/04 00:07:42;;;;;;;4.00;3.13;;;;;;;14.54;72.06;101353.56;3579019;40;20236;-77
2021/07/04 00:10:13;;;;;;;4.90;3.30;;;;;;;14.47;72.36;101353.47;3573710;40;20258;-78
2021/07/04 00:12:39;;;;;;;2.70;2.50;;;;;;;14.46;72.00;101357.75;3569364;40;20525;-78
2021/07/04 00:15:10;;;;;;;3.60;2.63;;;;;;;14.44;72.31;101358.59;3570299;40;20226;-77
2021/07/04 00:17:35;;;;;;;3.10;2.80;;;;;;;14.39;72.37;101357.66;3570990;40;20524;-78
2021/07/04 00:20:05;;;;;;;3.13;2.83;;;;;;;14.37;72.78;101361.97;3573213;40;20250;-77
2021/07/04 00:22:31;;;;;;;3.93;2.87;;;;;;;14.31;72.47;101357.59;3579186;40;20218;-77
2021/07/04 00:24:56;;;;;;;4.13;3.63;;;;;;;14.26;72.92;101363.50;3580056;40;20229;-78
2021/07/04 00:27:21;;;;;;;2.87;2.57;;;;;;;14.23;73.06;101366.91;3578640;40;20314;-78
2021/07/04 00:29:46;;;;;;;2.80;2.60;;;;;;;14.23;72.56;101359.19;3579693;40;20237;-77
2021/07/04 00:32:12;;;;;;;3.20;2.93;;;;;;;14.22;72.21;101357.47;3579121;40;20250;-78
2021/07/04 00:34:37;;;;;;;4.00;3.60;;;;;;;14.23;72.13;101353.19;3580032;40;20289;-77
2021/07/04 00:37:02;;;;;;;6.00;3.90;;;;;;;14.19;72.75;101357.41;3579542;40;20221;-77
2021/07/04 00:39:28;;;;;;;3.80;3.20;;;;;;;14.07;74.21;101358.94;3569776;40;20242;-77
2021/07/04 00:41:53;;;;;;;5.77;5.10;;;;;;;13.92;74.58;101358.72;3569948;40;20320;-77
2021/07/04 00:44:19;;;;;;;4.00;3.60;;;;;;;13.89;75.02;101354.41;3570159;40;20227;-77
2021/07/04 00:46:44;;;;;;;3.50;3.20;;;;;;;13.88;74.59;101355.25;3570035;40;20223;-78
2021/07/04 00:49:09;;;;;;;3.70;3.40;;;;;;;13.91;74.13;101350.13;3570197;40;20525;-77
2021/07/04 00:51:35;;;;;;;3.33;2.97;;;;;;;13.92;73.53;101349.31;3570525;40;20230;-77
2021/07/04 00:54:00;;;;;;;3.00;2.80;;;;;;;13.95;73.50;101339.03;3576822;40;20234;-77
2021/07/04 00:56:25;;;;;;;4.13;3.20;;;;;;;13.95;73.73;101343.34;3578759;40;20214;-77
2021/07/04 00:58:51;;;;;;;6.30;5.10;;;;;;;13.86;74.47;101341.47;3578605;40;20238;-77
2021/07/04 01:01:16;;;;;;;4.83;4.33;;;;;;;13.75;75.24;101342.16;3579048;40;20497;-77
2021/07/04 01:03:41;;;;;;;4.57;4.17;;;;;;;13.66;75.60;101342.03;3578319;40;20230;-77
2021/07/04 01:06:07;;;;;;;5.10;4.10;;;;;;;13.68;75.38;101342.94;3573152;40;20234;-78
2021/07/04 01:08:32;;;;;;;4.00;3.57;;;;;;;13.68;74.73;101338.63;3580452;40;20240;-77
2021/07/04 01:10:58;;;;;;;4.33;3.40;;;;;;;13.71;74.12;101340.41;3579787;40;20238;-77
2021/07/04 01:13:23;;;;;;;3.80;3.50;;;;;;;13.73;74.14;101337.03;3578662;40;20226;-78
2021/07/04 01:15:49;;;;;;;6.30;5.20;;;;;;;13.61;74.89;101334.25;3569588;40;20211;-76
2021/07/04 01:18:14;;;;;;;7.00;6.40;;;;;;;13.50;75.66;101334.94;3574367;40;20244;-77
2021/07/04 01:20:41;;;;;;;4.57;4.13;;;;;;;13.55;75.30;101331.59;3563780;40;20234;-78
2021/07/04 01:23:12;;;;;;;3.93;3.33;;;;;;;13.59;74.12;101342.81;3570525;40;20603;-77
2021/07/04 01:25:43;;;;;;;4.30;3.90;;;;;;;13.58;74.05;101333.34;3569501;40;20313;-77
2021/07/04 01:28:09;;;;;;;4.43;4.03;;;;;;;13.60;73.70;101336.81;3576757;40;20218;-76
2021/07/04 01:30:34;;;;;;;6.73;6.10;;;;;;;13.48;75.07;101329.75;3578308;40;20247;-77
2021/07/04 01:33:00;;;;;;;5.53;5.07;;;;;;;13.47;74.10;101330.63;3579661;40;20616;-79
2021/07/04 01:35:26;;;;;;;4.50;4.10;;;;;;;13.50;74.36;101327.22;3579678;40;20234;-78
2021/07/04 01:37:51;;;;;;;4.15;3.75;;;;;;;13.52;73.91;101325.53;3581229;40;20311;-79
2021/07/04 01:40:17;;;;;;;4.40;4.00;;;;;;;13.52;74.10;101325.53;3580145;40;20257;-78
2021/07/04 01:42:45;;;;;;;4.50;4.10;;;;;;;13.51;74.02;101323.78;3581106;40;20503;-79
2021/07/04 01:45:14;;;;;;;5.73;4.30;;;;;;;13.48;73.79;101321.19;3579545;40;20218;-80
2021/07/04 01:47:41;;;;;;;5.33;4.77;;;;;;;13.43;74.25;101317.66;3570135;40;20231;-78
2021/07/04 01:50:10;;;;;;;4.67;4.27;;;;;;;13.46;73.92;101315.16;3570338;40;20242;-77
2021/07/04 01:52:36;;;;;;;5.93;5.43;;;;;;;13.43;73.79;101313.41;3570176;40;20222;-78
2021/07/04 01:55:07;;;;;;;4.60;4.20;;;;;;;13.43;73.76;101305.69;3570015;40;20763;-78
2021/07/04 01:57:32;;;;;;;5.47;4.97;;;;;;;13.37;74.18;101310.75;3568904;40;20253;-76
2021/07/04 02:00:04;;;;;;;4.97;4.57;;;;;;;13.35;74.40;101306.41;3569510;40;20234;-77
2021/07/04 02:02:29;;;;;;;5.90;5.40;;;;;;;13.33;74.25;101305.50;3571909;40;20604;-77
2021/07/04 02:04:54;;;;;;;4.97;4.57;;;;;;;13.30;74.43;101306.31;3580042;40;20226;-78
2021/07/04 02:07:19;;;;;;;5.53;4.93;;;;;;;13.35;74.76;101306.41;3580017;40;20492;-75
2021/07/04 02:09:47;;;;;;;5.67;5.17;;;;;;;13.31;74.69;101308.03;3579493;40;20284;-77
2021/07/04 02:12:14;;;;;;;5.33;4.83;;;;;;;13.30;74.32;101302.91;3579911;40;20246;-76
2021/07/04 02:14:40;;;;;;;5.37;4.87;;;;;;;13.30;74.06;101298.59;3573713;40;20540;-77
2021/07/04 02:17:06;;;;;;;6.00;5.43;;;;;;;13.32;73.95;101303.78;3570914;40;20226;-77
2021/07/04 02:19:36;;;;;;;8.57;7.77;;;;;;;13.25;74.84;101304.53;3578372;40;20230;-76
2021/07/04 02:22:04;;;;;;;7.77;6.87;;;;;;;13.13;75.70;101309.47;3569099;40;20258;-76
2021/07/04 02:24:30;;;;;;;5.80;5.30;;;;;;;13.18;75.25;101305.28;3579590;40;20233;-76
2021/07/04 02:26:56;;;;;;;5.07;4.53;;;;;;;13.16;75.01;101304.41;3577493;40;20319;-76
2021/07/04 02:29:21;;;;;;;4.63;4.13;;;;;;;13.18;74.71;101302.69;3572778;40;20241;-76
2021/07/04 02:31:47;;;;;;;5.37;4.90;;;;;;;13.17;74.31;101300.97;3578988;40;20253;-76
2021/07/04 02:34:12;;;;;;;4.30;4.00;;;;;;;13.18;74.46;101308.72;3582095;40;20226;-76
2021/07/04 02:36:38;;;;;;;4.93;4.40;;;;;;;13.19;73.45;101307.00;3579202;40;20588;-76
2021/07/04 02:39:04;;;;;;;4.83;4.43;;;;;;;13.20;73.85;101299.31;3580310;40;20233;-75
2021/07/04 02:41:30;;;;;;;5.13;4.63;;;;;;;13.24;73.67;101305.34;3578800;40;20242;-76
2021/07/04 02:43:55;;;;;;;5.33;4.83;;;;;;;13.24;74.46;101306.22;3579690;40;20233;-76
2021/07/04 02:46:20;;;;;;;5.47;4.97;;;;;;;13.30;74.52;101305.47;3578668;40;20612;-76
2021/07/04 02:48:45;;;;;;;6.20;5.60;;;;;;;13.40;75.29;101310.75;3569680;40;20234;-77
2021/07/04 02:51:11;;;;;;;4.27;3.87;;;;;;;13.43;74.54;101310.81;3568399;40;20245;-77
2021/07/04 02:53:36;;;;;;;5.40;4.90;;;;;;;13.44;74.81;101306.56;3570160;40;20241;-77
2021/07/04 02:56:01;;;;;;;4.87;4.40;;;;;;;13.43;74.83;101302.22;3578421;40;20591;-77
2021/07/04 02:58:27;;;;;;;5.00;4.60;;;;;;;13.41;74.30;101306.50;3570685;40;20234;-77
2021/07/04 03:00:52;;;;;;;4.50;4.10;;;;;;;13.38;73.92;101306.44;3570666;40;20240;-76
2021/07/04 03:03:17;;;;;;;5.50;5.00;;;;;;;13.32;74.42;101307.22;3578921;40;20238;-77
2021/07/04 03:05:43;;;;;;;4.50;4.10;;;;;;;13.27;74.17;101303.72;3578079;40;20710;-76
2021/07/04 03:08:08;;;;;;;7.07;6.47;;;;;;;13.23;74.38;101307.09;3577845;40;20232;-76
2021/07/04 03:10:34;;;;;;;5.87;5.13;;;;;;;13.19;74.56;101304.41;3578139;40;20546;-76
2021/07/04 03:12:59;;;;;;;7.13;6.10;;;;;;;13.13;74.87;101309.47;3578643;40;20221;-76
2021/07/04 03:15:26;;;;;;;4.97;4.57;;;;;;;13.14;74.91;101306.06;3582288;40;20238;-77
2021/07/04 03:17:51;;;;;;;4.50;4.10;;;;;;;13.16;74.59;101307.81;3573184;40;20612;-77
2021/07/04 03:20:17;;;;;;;5.47;4.97;;;;;;;13.16;74.49;101301.81;3578713;40;20246;-76
2021/07/04 03:22:44;;;;;;;6.80;6.20;;;;;;;13.13;74.17;101305.22;3567850;40;20632;-76
2021/07/04 03:25:10;;;;;;;5.83;5.33;;;;;;;13.18;74.48;101310.41;3569226;40;20256;-76
2021/07/04 03:27:37;;;;;;;6.57;5.97;;;;;;;13.12;74.52;101307.75;3573165;40;20294;-76
2021/07/04 03:30:05;;;;;;;5.27;4.77;;;;;;;13.14;74.24;101304.38;3570661;40;20274;-76
2021/07/04 03:32:30;;;;;;;5.00;4.53;;;;;;;13.18;73.95;101301.00;3568708;40;20235;-78
2021/07/04 03:34:55;;;;;;;6.10;5.50;;;;;;;13.21;74.11;101293.31;3567533;40;20222;-77
2021/07/04 03:37:21;;;;;;;9.20;8.30;;;;;;;13.17;75.00;101296.69;3568728;40;20234;-77
2021/07/04 03:39:46;;;;;;;6.00;5.27;;;;;;;13.24;74.94;101302.78;3568572;40;20708;-76
2021/07/04 03:42:11;;;;;;;5.00;4.60;;;;;;;13.28;75.25;101302.88;3568704;40;20231;-76
2021/07/04 03:44:37;;;;;;;5.37;4.83;;;;;;;13.34;74.89;101308.09;3575614;40;20218;-76
2021/07/04 03:47:02;;;;;;;7.50;6.80;;;;;;;13.39;74.87;101306.47;3577710;40;20670;-77
2021/07/04 03:49:28;;;;;;;5.73;5.27;;;;;;;13.48;74.75;101309.19;3579596;40;20314;-77
2021/07/04 03:51:53;;;;;;;5.73;5.23;;;;;;;13.52;75.17;101310.97;3580973;40;20237;-77
2021/07/04 03:54:18;;;;;;;5.73;5.23;;;;;;;13.57;74.66;101314.47;3581693;40;20620;-77
2021/07/04 03:56:44;;;;;;;6.30;5.73;;;;;;;13.62;74.31;101311.97;3579573;40;20282;-77
2021/07/04 03:59:09;;;;;;;5.83;5.33;;;;;;;13.69;73.78;101304.38;3571616;40;20226;-77
2021/07/04 04:01:34;;;;;;;6.67;6.13;;;;;;;13.73;73.69;101303.56;3571213;40;20339;-76
2021/07/04 04:03:59;;;;;;;5.73;5.20;;;;;;;13.80;73.94;101302.78;3570733;40;20235;-77
2021/07/04 04:06:25;;;;;;;6.00;5.50;;;;;;;13.84;73.97;101309.72;3571384;40;20230;-76
2021/07/04 04:08:50;;;;;;;5.37;4.87;;;;;;;13.90;74.23;101298.66;3573430;40;20234;-77
2021/07/04 04:11:15;;;;;;;6.50;5.97;;;;;;;13.98;74.99;101303.03;3574027;40;20606;-77
2021/07/04 04:13:40;;;;;;;5.27;4.77;;;;;;;14.06;74.98;101305.69;3580753;40;20230;-77
2021/07/04 04:16:06;;;;;;;6.30;5.80;;;;;;;14.18;74.77;101303.28;3580405;40;20223;-77
2021/07/04 04:18:37;;;;;;;4.63;4.30;;;;;;;14.32;75.17;101312.09;3570855;40;20233;-77
2021/07/04 04:21:07;;;;;;;7.00;6.40;;;;;;;14.41;75.39;101309.63;3559600;40;20254;-77
2021/07/04 04:23:33;;;;;;;7.90;7.10;;;;;;;14.51;75.55;101301.97;3579640;40;20254;-76
2021/07/04 04:25:59;;;;;;;8.53;7.73;;;;;;;14.64;75.41;101313.31;3578906;40;20214;-76
2021/07/04 04:28:24;;;;;;;10.40;9.33;;;;;;;14.74;75.65;101310.81;3572055;40;20296;-77
2021/07/04 04:30:50;;;;;;;8.57;7.87;;;;;;;14.81;75.15;101312.63;3571166;40;20238;-77
2021/07/04 04:33:15;;;;;;;7.63;6.93;;;;;;;14.94;75.10;101308.44;3581555;40;20269;-78
2021/07/04 04:35:40;;;;;;;8.30;7.60;;;;;;;15.03;74.79;101311.09;3573193;40;20223;-77
2021/07/04 04:38:05;;;;;;;8.67;7.87;;;;;;;15.16;74.96;101307.78;3574282;40;20246;-77
2021/07/04 04:40:31;;;;;;;8.60;7.40;;;;;;;15.29;74.70;101309.59;3573072;40;20725;-77
2021/07/04 04:42:56;;;;;;;7.07;6.17;;;;;;;15.43;74.43;101313.19;3579602;40;20905;-78
2021/07/04 04:45:21;;;;;;;7.63;6.93;;;;;;;15.75;73.44;101314.25;3578459;40;20228;-77
2021/07/04 04:47:46;;;;;;;5.93;5.30;;;;;;;15.88;72.92;101308.31;3570048;40;20223;-78
2021/07/04 04:50:12;;;;;;;5.23;4.70;;;;;;;16.07;72.29;101302.38;3569606;40;20293;-77
2021/07/04 04:52:37;;;;;;;5.37;4.87;;;;;;;16.23;71.93;101305.03;3568766;40;20238;-77
2021/07/04 04:55:08;;;;;;;7.10;6.50;;;;;;;16.33;71.22;101291.28;3570348;40;20600;-78
2021/07/04 04:57:34;;;;;;;6.90;6.30;;;;;;;16.49;71.20;101293.06;3570244;40;20617;-77
2021/07/04 04:59:59;;;;;;;6.03;5.50;;;;;;;16.72;70.06;101293.13;3568755;40;20239;-77
2021/07/04 05:02:25;;;;;;;6.93;6.23;;;;;;;16.84;70.17;101291.44;3569098;40;20231;-77
2021/07/04 05:04:50;;;;;;;7.33;6.63;;;;;;;17.04;69.88;101291.44;3570138;40;20307;-77
2021/07/04 05:07:15;;;;;;;13.20;7.60;;;;;;;17.19;69.94;101281.97;3568869;40;20298;-77
2021/07/04 05:09:41;;;;;;;9.20;8.23;;;;;;;17.39;69.86;101288.00;3569470;40;20226;-77
2021/07/04 05:12:06;;;;;;;8.17;7.40;;;;;;;17.83;68.45;101287.91;3569717;40;20333;-75
2021/07/04 05:14:31;;;;;;;9.27;8.03;;;;;;;17.87;68.88;101282.72;3575464;40;20484;-78
2021/07/04 05:16:56;;;;;;;7.83;7.03;;;;;;;18.17;68.01;101277.41;3580058;40;20246;-78
2021/07/04 05:19:22;;;;;;;8.90;8.00;;;;;;;18.24;67.59;101281.69;3579333;40;20543;-77
2021/07/04 05:21:47;;;;;;;6.70;6.10;;;;;;;18.48;67.32;101275.56;3567453;40;20343;-77
2021/07/04 05:24:12;;;;;;;9.33;8.37;;;;;;;18.71;65.52;101273.69;3579451;40;20230;-78
2021/07/04 05:26:39;;;;;;;8.33;7.53;;;;;;;18.69;66.41;101278.00;3578278;40;20214;-79
2021/07/04 05:29:04;;;;;;;7.13;6.17;;;;;;;18.93;66.00;101278.69;3568434;40;20601;-77
2021/07/04 05:31:30;;;;;;;8.77;7.97;;;;;;;19.06;64.99;101274.25;3569084;40;20241;-78
2021/07/04 05:33:56;;;;;;;8.23;7.53;;;;;;;19.20;63.82;101267.25;3569589;40;20222;-77
2021/07/04 05:36:21;;;;;;;7.90;7.17;;;;;;;19.36;63.71;101266.25;3573282;40;20312;-76
2021/07/04 05:38:47;;;;;;;9.50;7.67;;;;;;;19.49;62.83;101271.31;3576135;40;20554;-76
2021/07/04 05:41:13;;;;;;;9.00;7.13;;;;;;;19.57;62.74;101269.50;3576501;40;20240;-77
2021/07/04 05:43:41;;;;;;;7.73;7.00;;;;;;;19.96;61.67;101266.47;3569622;40;20214;-77
2021/07/04 05:46:07;;;;;;;7.17;6.47;;;;;;;20.41;60.83;101265.03;3569357;40;20226;-78
2021/07/04 05:48:32;;;;;;;7.80;7.00;;;;;;;20.56;60.82;101264.81;3570434;40;20249;-78
2021/07/04 05:50:57;;;;;;;8.67;7.43;;;;;;;20.65;59.69;101257.75;3569803;40;20246;-77
2021/07/04 05:53:23;;;;;;;8.00;7.30;;;;;;;20.93;59.21;101256.47;3571043;40;20218;-77
2021/07/04 05:55:49;;;;;;;7.53;6.80;;;;;;;21.15;57.74;101252.59;3579782;40;20238;-77
2021/07/04 05:58:14;;;;;;;7.47;6.77;;;;;;;21.35;58.20;101249.66;3580149;40;20998;-77
2021/07/04 06:00:40;;;;;;;11.00;6.97;;;;;;;21.49;58.17;101240.69;3580135;40;20243;-77
2021/07/04 06:03:05;;;;;;;7.83;6.33;;;;;;;21.69;57.37;101241.19;3579987;40;20304;-77
2021/07/04 06:05:31;;;;;;;8.17;7.13;;;;;;;21.60;57.97;101236.13;3580155;40;20233;-77
2021/07/04 06:07:56;;;;;;;7.90;6.47;;;;;;;22.14;55.66;101240.25;3580537;40;20225;-77
2021/07/04 06:10:21;;;;;;;7.63;6.03;;;;;;;22.01;57.02;101237.94;3580853;40;20734;-78
2021/07/04 06:12:47;;;;;;;7.43;6.73;;;;;;;21.92;55.26;101232.94;3580705;40;20242;-77
2021/07/04 06:15:13;;;;;;;7.77;7.07;;;;;;;22.16;54.87;101238.47;3570758;40;20322;-77
2021/07/04 06:17:38;;;;;;;6.87;6.27;;;;;;;22.14;55.81;101236.78;3569715;40;20226;-78
2021/07/04 06:20:09;;;;;;;7.33;6.73;;;;;;;21.78;56.49;101235.81;3569938;40;20652;-77
2021/07/04 06:22:37;;;;;;;8.13;6.80;;;;;;;21.73;56.12;101237.66;3558869;40;20251;-78
2021/07/04 06:25:04;;;;;;;7.53;6.77;;;;;;;21.79;56.68;101234.91;3570160;40;20486;-77
2021/07/04 06:27:29;;;;;;;8.67;6.97;;;;;;;22.22;55.49;101237.50;3572868;40;20299;-77
2021/07/04 06:29:54;;;;;;;7.37;6.67;;;;;;;22.61;53.77;101230.53;3579793;40;20508;-77
2021/07/04 06:32:20;;;;;;;7.43;6.70;;;;;;;22.90;53.54;101236.78;3580770;40;20791;-78
2021/07/04 06:34:45;;;;;;;7.53;6.83;;;;;;;23.22;53.26;101228.16;3580196;40;20233;-77
2021/07/04 06:37:10;;;;;;;7.93;6.20;;;;;;;23.45;51.85;101231.03;3579490;40;20229;-78
2021/07/04 06:39:36;;;;;;;6.33;5.57;;;;;;;23.85;51.07;101229.88;3578557;40;20626;-77
2021/07/04 06:42:01;;;;;;;7.60;6.37;;;;;;;24.19;49.91;101224.53;3577188;40;20504;-77
2021/07/04 06:44:27;;;;;;;6.07;5.47;;;;;;;24.56;48.41;101228.59;3579966;40;20619;-78
2021/07/04 06:46:53;;;;;;;6.55;5.72;;;;;;;24.83;47.09;101219.03;3579825;40;20318;-77
2021/07/04 06:49:18;;;;;;;7.10;6.28;;;;;;;24.65;47.62;101222.22;3579358;40;20612;-76
2021/07/04 06:51:44;;;;;;;5.57;4.85;;;;;;;24.84;47.21;101218.97;3578460;40;20238;-76
2021/07/04 06:54:09;;;;;;;5.97;5.38;;;;;;;24.90;47.54;101215.28;3580029;40;20238;-77
2021/07/04 06:56:34;;;;;;;5.47;4.97;;;;;;;25.39;46.24;101223.22;3580445;40;20225;-78
2021/07/04 06:58:59;;;;;;;6.95;5.30;;;;;;;25.13;45.38;101220.59;3573726;40;20235;-77
2021/07/04 07:01:25;;;;;;;5.03;3.83;;;;;;;25.93;46.23;101218.63;3569917;40;20230;-77
2021/07/04 07:03:50;;;;;;;12.98;4.75;;;;;;;26.09;44.96;101220.63;3569289;40;20226;-77
2021/07/04 07:06:16;;;;;;;4.03;3.63;;;;;;;26.04;44.94;101211.19;3568726;40;20230;-76
2021/07/04 07:08:42;;;;;;;4.50;4.10;;;;;;;25.90;45.62;101213.47;3569994;40;20316;-78
2021/07/04 07:11:07;;;;;;;4.03;3.63;;;;;;;26.40;44.81;101212.41;3569135;40;20242;-77
2021/07/04 07:13:32;;;;;;;4.50;4.03;;;;;;;26.31;43.51;101207.50;3570162;40;20230;-78
2021/07/04 07:15:58;;;;;;;4.78;4.32;;;;;;;26.51;43.44;101210.19;3570002;40;20226;-78
2021/07/04 07:18:23;;;;;;;4.20;3.53;;;;;;;26.89;42.72;101201.66;3570375;40;20214;-77
2021/07/04 07:20:48;;;;;;;6.80;4.32;;;;;;;26.30;43.31;101204.00;3569872;40;20234;-78
2021/07/04 07:23:13;;;;;;;6.50;4.53;;;;;;;26.28;43.31;101203.22;3560570;40;20291;-77
2021/07/04 07:25:39;;;;;;;5.50;4.32;;;;;;;26.55;42.45;101193.38;3575869;40;20231;-78
2021/07/04 07:28:04;;;;;;;6.63;4.35;;;;;;;27.00;41.41;101195.03;3574983;40;20235;-78
2021/07/04 07:30:30;;;;;;;4.28;3.90;;;;;;;26.86;41.85;101191.25;3570960;40;20261;-78
2021/07/04 07:32:55;;;;;;;4.63;3.80;;;;;;;27.28;41.03;101186.81;3571819;40;20246;-79
2021/07/04 07:35:21;;;;;;;4.60;4.13;;;;;;;27.42;41.70;101184.44;3571993;40;20230;-79
2021/07/04 07:37:48;;;;;;;4.22;3.80;;;;;;;27.89;41.78;101185.81;3572051;40;20321;-77
2021/07/04 07:40:13;;;;;;;5.20;4.43;;;;;;;28.41;39.54;101191.22;3572204;40;20256;-78
2021/07/04 07:42:38;;;;;;;4.18;3.55;;;;;;;28.58;39.76;101185.13;3572033;40;20238;-78
2021/07/04 07:45:06;;;;;;;4.00;3.70;;;;;;;29.06;38.78;101183.53;3572253;40;20578;-78
2021/07/04 07:47:31;;;;;;;7.60;4.18;;;;;;;28.95;38.83;101188.50;3571616;40;20266;-77
2021/07/04 07:50:00;;;;;;;3.80;3.50;;;;;;;29.38;37.27;101184.53;3577248;40;20339;-77
2021/07/04 07:52:25;;;;;;;5.03;4.07;;;;;;;28.87;38.56;101184.53;3571773;40;20645;-78
2021/07/04 07:54:50;;;;;;;4.72;3.97;;;;;;;28.69;38.48;101181.00;3577855;40;20299;-77
2021/07/04 07:57:15;;;;;;;4.85;4.40;;;;;;;27.82;40.26;101192.28;3582156;40;20604;-79
2021/07/04 07:59:41;;;;;;;4.95;3.80;;;;;;;27.36;42.28;101182.91;3581342;40;20214;-78
2021/07/04 08:02:06;;;;;;;4.15;3.85;;;;;;;27.56;41.65;101190.81;3581759;40;20254;-77
2021/07/04 08:04:31;;;;;;;4.73;4.20;;;;;;;28.03;40.87;101180.75;3581952;40;20627;-78
2021/07/04 08:06:56;;;;;;;4.30;3.90;;;;;;;28.62;40.74;101184.91;3580892;40;20241;-79
2021/07/04 08:09:22;;;;;;;4.18;3.83;;;;;;;29.13;39.74;101179.66;3581904;40;20238;-78
2021/07/04 08:11:48;;;;;;;4.53;4.10;;;;;;;29.35;38.17;101180.25;3582007;40;20331;-78
2021/07/04 08:14:13;;;;;;;4.43;4.03;;;;;;;29.58;38.12;101171.16;3577149;40;20497;-78
2021/07/04 08:16:38;;;;;;;4.82;4.43;;;;;;;29.45;38.18;101180.63;3572889;40;20219;-78
2021/07/04 08:19:04;;;;;;;5.25;4.75;;;;;;;29.39;37.02;101181.78;3572195;40;20567;-79
2021/07/04 08:21:29;;;;;;;7.13;4.00;;;;;;;29.01;38.92;101174.19;3561291;40;20242;-77
2021/07/04 08:23:56;;;;;;;8.30;4.68;;;;;;;28.66;38.47;101170.63;3571172;40;20238;-76
2021/07/04 08:26:21;;;;;;;4.68;4.28;;;;;;;28.27;39.77;101176.97;3575202;40;20225;-75
2021/07/04 08:28:47;;;;;;;4.53;4.13;;;;;;;28.81;39.41;101172.50;3573661;40;20605;-76
2021/07/04 08:31:12;;;;;;;4.53;4.13;;;;;;;29.03;38.78;101170.53;3581299;40;20265;-78
2021/07/04 08:33:37;;;;;;;5.13;4.60;;;;;;;28.43;39.99;101167.41;3578317;40;20223;-77
2021/07/04 08:36:03;;;;;;;6.47;5.50;;;;;;;28.45;39.37;101174.31;3577397;40;20241;-76
2021/07/04 08:38:28;;;;;;;5.38;4.88;;;;;;;28.81;39.26;101166.38;3571769;40;20234;-76
2021/07/04 08:40:54;;;;;;;5.18;4.70;;;;;;;29.05;39.75;101160.72;3571941;40;20334;-76
2021/07/04 08:43:34;;;;;;;5.47;4.85;;;;;;;29.50;38.93;101154.81;3581236;40;20251;-76
2021/07/04 08:46:01;;;;;;;5.57;5.07;;;;;;;30.49;36.88;101145.75;3576219;40;20678;-77
2021/07/04 08:48:27;;;;;;;6.50;5.80;;;;;;;30.31;37.19;101150.31;3571938;40;20206;-76
2021/07/04 08:50:53;;;;;;;6.00;5.35;;;;;;;28.84;38.28;101155.66;3572792;40;20239;-77
2021/07/04 08:53:20;;;;;;;7.05;5.55;;;;;;;28.46;39.93;101151.47;3575400;40;20648;-76
2021/07/04 08:55:46;;;;;;;6.15;5.40;;;;;;;27.99;40.87;101150.19;3577964;40;20246;-76
2021/07/04 08:58:11;;;;;;;5.53;5.10;;;;;;;28.15;40.51;101145.94;3579044;40;20344;-75
2021/07/04 09:00:37;;;;;;;5.30;4.38;;;;;;;28.71;38.97;101144.03;3576188;40;20242;-76
2021/07/04 09:03:23;;;;;;;6.47;5.88;;;;;;;29.12;37.98;101138.38;3571459;40;20513;-76
2021/07/04 09:05:48;;;;;;;10.80;5.32;;;;;;;29.35;37.57;101142.44;3575314;40;20230;-76
2021/07/04 09:08:19;;;;;;;5.85;5.30;;;;;;;29.33;37.06;101144.31;3578605;40;20316;-76
2021/07/04 09:10:44;;;;;;;5.13;4.63;;;;;;;29.99;36.33;101140.69;3576470;40;20241;-77
2021/07/04 09:13:24;;;;;;;5.80;5.30;;;;;;;29.82;36.90;101135.47;3569958;40;20242;-77
2021/07/04 09:16:08;;;;;;;5.65;4.70;;;;;;;30.98;34.71;101126.09;3573348;40;20223;-77
2021/07/04 09:18:35;;;;;;;5.30;4.90;;;;;;;31.85;33.63;101123.31;3579978;40;20241;-76
2021/07/04 09:21:01;;;;;;;6.93;5.22;;;;;;;31.86;32.54;101128.47;3576112;40;20263;-76
2021/07/04 09:23:36;;;;;;;5.05;4.55;;;;;;;31.68;32.79;101126.13;3572512;40;20230;-75
2021/07/04 09:26:02;;;;;;;5.00;4.50;;;;;;;31.78;33.29;101127.28;3572354;40;20218;-76
2021/07/04 09:28:28;;;;;;;5.15;4.63;;;;;;;31.48;32.90;101126.53;3578639;40;20250;-77
2021/07/04 09:30:56;;;;;;;5.57;5.07;;;;;;;31.98;33.04;101121.53;3579595;40;20237;-77
2021/07/04 09:33:28;;;;;;;5.70;5.22;;;;;;;32.78;32.74;101117.06;3580344;40;20232;-77
2021/07/04 09:36:03;;;;;;;5.55;5.05;;;;;;;33.16;31.74;101113.50;3580534;40;20225;-78
2021/07/04 09:38:35;;;;;;;5.40;4.93;;;;;;;33.72;30.84;101110.34;3581546;40;20271;-79
2021/07/04 09:41:07;;;;;;;5.53;4.63;;;;;;;33.85;30.71;101118.31;3591753;23;20255;-78
2021/07/04 09:43:35;;;;;;;5.03;4.38;;;;;;;33.85;30.78;101111.22;3563927;40;20235;-77
2021/07/04 09:46:08;;;;;;;4.88;4.47;;;;;;;34.21;29.57;101102.31;3551679;40;20212;-79
2021/07/04 09:48:33;;;;;;;5.78;4.65;;;;;;;34.28;31.65;101101.75;3551675;40;20611;-77
2021/07/04 09:51:11;;;;;;;5.17;4.67;;;;;;;34.51;30.21;101100.03;3556367;40;20305;-77
2021/07/04 09:53:44;;;;;;;5.25;4.70;;;;;;;34.11;30.51;101099.50;3560502;40;20533;-78
2021/07/04 09:56:28;;;;;;;5.47;4.97;;;;;;;33.85;30.68;101097.91;3561880;40;20241;-79
2021/07/04 09:58:58;;;;;;;5.05;4.65;;;;;;;34.08;30.72;101093.56;3561300;40;20274;-78
2021/07/04 10:01:45;;;;;;;4.78;4.30;;;;;;;33.46;31.48;101098.06;3561015;40;20259;-77
2021/07/04 10:04:31;;;;;;;5.40;4.85;;;;;;;31.71;32.46;101105.56;3561487;40;20231;-76
2021/07/04 10:06:59;;;;;;;5.85;4.85;;;;;;;32.03;32.08;101100.88;3560555;40;20285;-78
2021/07/04 10:09:44;;;;;;;6.25;4.68;;;;;;;32.42;31.72;101104.47;3561057;40;20227;-78
2021/07/04 10:12:18;;;;;;;5.30;4.80;;;;;;;32.01;31.31;101101.00;3560894;40;20342;-78
2021/07/04 10:14:48;;;;;;;6.30;5.57;;;;;;;31.26;33.75;101097.84;3568489;40;20242;-77
2021/07/04 10:17:14;;;;;;;5.57;5.00;;;;;;;31.97;33.29;101107.44;3560108;40;20239;-77
2021/07/04 10:19:43;;;;;;;5.82;5.30;;;;;;;32.28;32.27;101098.38;3560864;40;20264;-76
2021/07/04 10:22:14;;;;;;;5.88;5.38;;;;;;;31.93;32.52;101097.13;3561167;40;20263;-76
2021/07/04 10:24:39;;;;;;;5.75;5.20;;;;;;;32.40;32.91;101090.44;3561054;40;20704;-77
2021/07/04 10:27:13;;;;;;;5.33;4.93;;;;;;;32.11;32.63;101080.88;3561235;40;20222;-77
2021/07/04 10:29:38;;;;;;;5.57;5.15;;;;;;;31.95;32.41;101087.28;3561214;40;20492;-77
2021/07/04 10:32:13;;;;;;;6.35;5.75;;;;;;;33.01;30.35;101080.03;3561007;40;20700;-77
2021/07/04 10:34:42;;;;;;;5.70;5.10;;;;;;;32.99;29.53;101079.28;3561796;40;20231;-76
2021/07/04 10:37:07;;;;;;;5.35;4.85;;;;;;;32.34;31.92;101082.91;3572659;40;20274;-77
2021/07/04 10:39:34;;;;;;;5.72;5.15;;;;;;;32.48;32.92;101079.31;3566027;40;20309;-77
2021/07/04 10:42:06;;;;;;;5.68;5.07;;;;;;;33.65;30.34;101063.06;3560657;40;20309;-76
2021/07/04 10:44:50;;;;;;;6.70;5.30;;;;;;;33.93;31.14;101068.94;3561386;40;20278;-76
2021/07/04 10:47:20;;;;;;;5.80;5.30;;;;;;;33.40;29.77;101063.13;3561120;40;20234;-77
2021/07/04 10:49:56;;;;;;;5.63;5.22;;;;;;;33.31;33.44;101066.44;3560963;40;20235;-76
2021/07/04 10:52:33;;;;;;;5.20;4.70;;;;;;;34.63;28.99;101051.22;3561084;40;20304;-77
2021/07/04 10:54:58;;;;;;;6.07;5.30;;;;;;;35.20;30.03;101060.00;3561402;40;20238;-76
2021/07/04 10:57:35;;;;;;;5.43;4.95;;;;;;;35.78;26.04;101051.75;3561145;40;20616;-76
2021/07/04 11:00:06;;;;;;;5.00;4.57;;;;;;;34.58;29.53;101051.53;3561555;40;20227;-77
2021/07/04 11:02:50;;;;;;;5.85;5.35;;;;;;;34.04;30.07;101053.03;3558874;40;20230;-79
2021/07/04 11:05:30;;;;;;;5.68;5.10;;;;;;;33.36;31.53;101054.53;3563356;40;20237;-79
2021/07/04 11:07:56;;;;;;;5.45;4.95;;;;;;;33.41;30.87;101054.19;3562872;40;20321;-78
2021/07/04 11:10:24;;;;;;;5.10;4.70;;;;;;;34.04;30.25;101057.50;3562016;40;20628;-78
2021/07/04 11:12:55;;;;;;;5.53;5.03;;;;;;;34.12;30.33;101055.13;3569968;40;20280;-78
2021/07/04 11:15:20;;;;;;;5.93;5.32;;;;;;;34.22;29.86;101056.13;3570845;40;20293;-79
2021/07/04 11:17:58;;;;;;;5.87;5.30;;;;;;;33.14;30.98;101056.13;3555884;40;20343;-77
2021/07/04 11:20:25;;;;;;;5.40;4.90;;;;;;;32.35;31.97;101052.75;3563239;40;20517;-77
2021/07/04 11:23:01;;;;;;;5.88;5.30;;;;;;;32.20;31.46;101056.41;3563148;40;20300;-77